createdAt,value
2023-10-08T00:01:23.537Z,22.8
2023-10-08T00:02:25.647Z,43.3
2023-10-08T00:04:26.693Z,38
2023-10-08T00:06:27.727Z,46.2
2023-10-08T00:08:28.807Z,36.2
2023-10-08T00:10:33.018Z,35.9
2023-10-08T00:12:34.081Z,21.6
2023-10-08T00:14:35.154Z,29.2
2023-10-08T00:16:36.233Z,28
2023-10-08T00:18:37.269Z,42.9
2023-10-08T00:20:38.294Z,32.6
2023-10-08T00:22:39.338Z,44.8
2023-10-08T00:24:43.602Z,35.2
2023-10-08T00:28:45.717Z,21.6
2023-10-08T00:30:46.797Z,47.4
2023-10-08T00:32:47.883Z,25.2
2023-10-08T00:36:49.946Z,28.5
2023-10-08T00:38:54.176Z,29.5
2023-10-08T00:40:55.216Z,33.1
2023-10-08T00:42:56.292Z,37
2023-10-08T00:44:57.352Z,24.6
2023-10-08T00:46:58.451Z,36.6
2023-10-08T00:49:01.001Z,39.4
2023-10-08T00:51:02.019Z,27.7
2023-10-08T00:53:06.282Z,30
2023-10-08T00:55:07.470Z,52
2023-10-08T00:58:10.623Z,39.1
2023-10-08T01:00:11.585Z,34.2
2023-10-08T01:02:12.694Z,34.7
2023-10-08T01:04:13.761Z,39.9
2023-10-08T01:06:17.970Z,33.9
2023-10-08T01:10:20.223Z,23.2
2023-10-08T01:12:21.172Z,31.8
2023-10-08T01:14:22.289Z,25.1
2023-10-08T01:16:23.327Z,46.1
2023-10-08T01:18:24.362Z,35.3
2023-10-08T01:20:28.620Z,27.1
2023-10-08T01:22:29.676Z,32.2
2023-10-08T01:24:30.739Z,37.1
2023-10-08T01:26:31.811Z,23.7
2023-10-08T01:30:33.961Z,33.2
2023-10-08T01:38:41.355Z,35.2
2023-10-08T01:40:42.418Z,33.2
2023-10-08T01:42:43.488Z,35.7
2023-10-08T01:44:44.540Z,28.8
2023-10-08T01:46:45.648Z,24.9
2023-10-08T01:48:49.834Z,27.2
2023-10-08T01:52:51.974Z,31.2
2023-10-08T01:53:54.169Z,35
2023-10-08T01:57:56.198Z,28.8
2023-10-08T02:08:04.735Z,23.2
2023-10-08T02:10:05.749Z,35.2
2023-10-08T02:16:12.199Z,31.1
2023-10-08T02:18:13.246Z,18.2
2023-10-08T02:20:14.495Z,34.7
2023-10-08T02:24:16.361Z,26.9
2023-10-08T02:28:18.510Z,21.7
2023-10-08T02:30:22.773Z,35.5
2023-10-08T02:32:23.912Z,30.6
2023-10-08T02:34:24.892Z,23.5
2023-10-08T02:38:27.038Z,30.7
2023-10-08T02:40:28.161Z,27.2
2023-10-08T02:44:33.410Z,27
2023-10-08T02:46:34.465Z,44.2
2023-10-08T02:48:35.554Z,30
2023-10-08T02:51:03.494Z,26.8
2023-10-08T02:53:04.577Z,31.2
2023-10-08T02:55:05.645Z,37.7
2023-10-08T02:57:09.883Z,15.9
2023-10-08T02:59:11.145Z,21
2023-10-08T03:01:12.012Z,23.6
2023-10-08T03:19:24.853Z,7.7
2023-10-08T03:21:25.949Z,10.1
2023-10-08T03:23:27.094Z,8.3
2023-10-08T03:25:31.337Z,5.1
2023-10-08T03:27:32.417Z,6.4
2023-10-08T03:37:37.901Z,22.7
2023-10-08T03:44:46.551Z,5.9
2023-10-08T03:50:49.873Z,5.7
2023-10-08T03:54:55.202Z,9.5
2023-10-08T03:56:56.392Z,7.8
2023-10-08T03:58:57.428Z,5.9
2023-10-08T04:02:59.671Z,9.1
2023-10-08T04:05:00.722Z,6.4
2023-10-08T04:11:07.210Z,6.9
2023-10-08T04:13:08.317Z,2.1
2023-10-08T04:15:09.417Z,3
2023-10-08T04:17:10.905Z,4.2
2023-10-08T04:19:11.947Z,1.9
2023-10-08T04:21:15.936Z,6.8
2023-10-08T04:23:17.117Z,2.7
2023-10-08T04:25:18.151Z,13.9
2023-10-08T04:27:19.272Z,3.9
2023-10-08T04:29:20.475Z,2
2023-10-08T04:31:21.605Z,3.5
2023-10-08T04:33:22.742Z,3
2023-10-08T04:35:27.008Z,4
2023-10-08T04:37:28.084Z,3.8
2023-10-08T04:39:29.274Z,15
2023-10-08T04:40:31.409Z,2.9
2023-10-08T04:42:32.503Z,6.4
2023-10-08T04:52:41.187Z,4.1
2023-10-08T04:54:42.303Z,2.3
2023-10-08T05:00:45.700Z,3.9
2023-10-08T05:02:49.990Z,2.1
2023-10-08T05:04:51.027Z,9.6
2023-10-08T05:08:53.274Z,2.4
2023-10-08T05:14:56.582Z,3.3
2023-10-08T05:17:00.842Z,6.7
2023-10-08T05:23:04.134Z,4.5
2023-10-08T05:29:07.586Z,4.7
2023-10-08T05:31:11.894Z,6.1
2023-10-08T05:33:13.057Z,2.9
2023-10-08T05:35:14.071Z,3.9
2023-10-08T05:36:16.198Z,4.1
2023-10-08T05:38:17.536Z,4.6
2023-10-08T05:40:18.557Z,3.6
2023-10-08T05:44:23.804Z,7.1
2023-10-08T05:46:25.702Z,7.2
2023-10-08T05:50:27.109Z,7.5
2023-10-08T05:52:28.215Z,7.3
2023-10-08T05:54:29.435Z,4.4
2023-10-08T06:00:35.881Z,9.8
2023-10-08T06:06:39.263Z,3.3
2023-10-08T06:08:40.458Z,5.6
2023-10-08T06:10:41.575Z,13
2023-10-08T06:12:45.905Z,6.4
2023-10-08T06:18:49.288Z,6.2
2023-10-08T06:20:50.374Z,8.1
2023-10-08T06:22:51.536Z,8.5
2023-10-08T06:24:52.666Z,5.8
2023-10-08T06:26:57.193Z,6.1
2023-10-08T06:30:59.479Z,11.7
2023-10-08T06:37:31.474Z,5.8
2023-10-08T06:51:42.815Z,8.6
2023-10-08T06:59:50.709Z,19.7
2023-10-08T07:01:51.905Z,8.5
2023-10-08T07:03:53.354Z,7.6
2023-10-08T07:05:54.201Z,7.6
2023-10-08T07:07:58.458Z,6.9
2023-10-08T07:12:00.855Z,6.7
2023-10-08T07:18:04.341Z,10.9
2023-10-08T07:22:09.567Z,12.6
2023-10-08T07:24:10.816Z,10.4
2023-10-08T07:26:12.021Z,5.1
2023-10-08T07:27:14.128Z,13
2023-10-08T07:43:26.364Z,8.3
2023-10-08T07:49:32.850Z,9.7
2023-10-08T07:55:36.140Z,7.1
2023-10-08T08:01:39.480Z,5.6
2023-10-08T08:07:45.938Z,11.6
2023-10-08T08:15:52.227Z,13.7
2023-10-08T08:17:54.701Z,5.2
2023-10-08T08:19:55.729Z,10.2
2023-10-08T08:21:56.833Z,6.6
2023-10-08T08:22:58.976Z,8.1
2023-10-08T08:25:00.090Z,6.1
2023-10-08T08:27:01.239Z,3.8
2023-10-08T08:29:02.276Z,10.4
2023-10-08T08:31:06.559Z,6.4
2023-10-08T08:33:07.699Z,4.9
2023-10-08T08:41:12.004Z,10.4
2023-10-08T08:43:13.102Z,7.7
2023-10-08T08:47:18.571Z,13.6
2023-10-08T08:49:19.567Z,12.2
2023-10-08T08:51:20.646Z,8.6
2023-10-08T08:53:21.722Z,11.2
2023-10-08T08:55:22.829Z,6.2
2023-10-08T08:57:23.974Z,7.4
2023-10-08T08:59:28.199Z,10.2
2023-10-08T09:03:30.536Z,3
2023-10-08T09:05:31.441Z,9.6
2023-10-08T09:07:32.529Z,11.4
2023-10-08T09:09:33.589Z,7.6
2023-10-08T09:11:34.719Z,6.7
2023-10-08T09:13:38.962Z,7.9
2023-10-08T09:15:40.049Z,8.4
2023-10-08T09:17:41.166Z,5.5
2023-10-08T09:20:44.734Z,20.8
2023-10-08T09:22:45.428Z,10.9
2023-10-08T09:24:46.527Z,6
2023-10-08T09:28:51.872Z,6.2
2023-10-08T09:38:57.337Z,8.4
2023-10-08T09:41:01.538Z,22.8
2023-10-08T09:43:02.625Z,10.5
2023-10-08T09:45:03.799Z,7.1
2023-10-08T09:47:04.782Z,13.8
2023-10-08T09:51:06.964Z,7.1
2023-10-08T09:55:12.257Z,10.4
2023-10-08T10:11:24.006Z,7.3
2023-10-08T10:13:25.065Z,6.5
2023-10-08T10:15:53.058Z,5.1
2023-10-08T10:17:54.131Z,4.2
2023-10-08T10:19:55.120Z,10.7
2023-10-08T10:21:59.404Z,8
2023-10-08T10:24:00.491Z,14.4
2023-10-08T10:26:01.528Z,7.4
2023-10-08T10:38:11.063Z,5
2023-10-08T10:44:14.410Z,5.3
2023-10-08T10:46:15.311Z,4.4
2023-10-08T10:48:16.407Z,5.4
2023-10-08T10:54:22.686Z,2.1
2023-10-08T10:58:24.735Z,6.8
2023-10-08T11:00:25.807Z,9.4
2023-10-08T11:02:26.942Z,5.8
2023-10-08T11:04:31.083Z,8.7
2023-10-08T11:06:32.130Z,8.4
2023-10-08T11:08:33.233Z,3.6
2023-10-08T11:09:35.292Z,6.1
2023-10-08T11:21:44.710Z,4.5
2023-10-08T11:23:45.813Z,1.2
2023-10-08T11:25:46.787Z,9.8
2023-10-08T11:27:47.826Z,4.1
2023-10-08T11:29:48.912Z,14.1
2023-10-08T11:31:53.115Z,5
2023-10-08T11:33:54.156Z,9
2023-10-08T11:35:55.228Z,5.4
2023-10-08T11:37:56.251Z,6.5
2023-10-08T11:39:57.255Z,2.4
2023-10-08T11:41:58.370Z,3.5
2023-10-08T11:43:59.409Z,1.6
2023-10-08T11:46:03.590Z,0.9
2023-10-08T11:48:04.829Z,6
2023-10-08T11:50:05.669Z,2.9
2023-10-08T11:52:06.733Z,5.9
2023-10-08T11:56:08.844Z,5.6
2023-10-08T12:00:25.094Z,3.7
2023-10-08T12:05:18.509Z,6.2
2023-10-08T12:07:19.442Z,2.3
2023-10-08T12:09:20.383Z,4.3
2023-10-08T12:11:21.462Z,2
2023-10-08T12:13:25.666Z,1.5
2023-10-08T12:15:26.734Z,12.6
2023-10-08T12:17:27.788Z,3
2023-10-08T12:19:28.805Z,3
2023-10-08T12:21:29.875Z,5.7
2023-10-08T12:23:30.918Z,4.7
2023-10-08T12:25:31.976Z,4.9
2023-10-08T12:27:37.730Z,7.1
2023-10-08T12:29:38.798Z,4.4
2023-10-08T12:33:40.929Z,4.1
2023-10-08T12:35:41.949Z,3.9
2023-10-08T12:37:42.964Z,16.2
2023-10-08T12:39:44.004Z,4.1
2023-10-08T12:41:48.264Z,7.6
2023-10-08T12:43:49.307Z,6.7
2023-10-08T12:45:50.378Z,8.6
2023-10-08T12:47:51.677Z,16.6
2023-10-08T12:49:52.471Z,5.2
2023-10-08T12:51:53.548Z,2.3
2023-10-08T12:55:58.838Z,3.3
2023-10-08T12:57:59.883Z,2.5
2023-10-08T13:00:01.089Z,5.8
2023-10-08T13:01:03.136Z,22.6
2023-10-08T13:03:04.234Z,3.5
2023-10-08T13:05:05.194Z,8.3
2023-10-08T13:09:10.564Z,10.2
2023-10-08T13:13:12.613Z,7
2023-10-08T13:19:15.789Z,4.8
2023-10-08T13:21:16.846Z,5.3
2023-10-08T13:23:21.085Z,5
2023-10-08T13:25:22.178Z,4
2023-10-08T13:29:24.305Z,7.6
2023-10-08T13:31:25.633Z,4.6
2023-10-08T13:33:26.520Z,3.8
2023-10-08T13:35:27.521Z,4.7
2023-10-08T13:37:31.749Z,4.3
2023-10-08T13:39:32.826Z,9.4
2023-10-08T13:43:34.948Z,2.2
2023-10-08T13:45:36.039Z,4.5
2023-10-08T13:49:38.179Z,15.7
2023-10-08T13:51:42.409Z,3.9
2023-10-08T13:53:43.509Z,4.1
2023-10-08T13:55:44.550Z,5.7
2023-10-08T13:58:12.512Z,5.2
2023-10-08T14:00:13.691Z,2.4
2023-10-08T14:02:14.687Z,7.1
2023-10-08T14:04:19.630Z,4.1
2023-10-08T14:06:19.984Z,9.2
2023-10-08T14:08:21.062Z,4.5
2023-10-08T14:10:22.111Z,6.8
2023-10-08T14:12:25.209Z,5.9
2023-10-08T14:18:29.766Z,2.8
2023-10-08T14:20:30.640Z,4.9
2023-10-08T14:22:31.719Z,2.3
2023-10-08T14:32:40.334Z,6.2
2023-10-08T14:38:43.505Z,2.8
2023-10-08T14:40:44.577Z,2.4
2023-10-08T14:46:50.953Z,3.8
2023-10-08T14:48:52.176Z,7
2023-10-08T14:50:53.113Z,5.7
2023-10-08T14:51:55.236Z,4.4
2023-10-08T14:55:57.378Z,3.8
2023-10-08T15:02:03.775Z,6.9
2023-10-08T15:16:14.519Z,4.2
2023-10-08T15:34:37.010Z,2.6
2023-10-08T15:36:28.461Z,9.8
2023-10-08T15:38:29.544Z,9.8
2023-10-08T15:42:34.892Z,5.7
2023-10-08T15:44:36.018Z,6.4
2023-10-08T15:51:41.339Z,9.3
2023-10-08T16:01:49.940Z,3.6
2023-10-08T16:03:51.143Z,6.5
2023-10-08T16:05:52.198Z,10.8
2023-10-08T16:07:53.174Z,6.2
2023-10-08T16:09:57.454Z,3.6
2023-10-08T16:18:01.859Z,8.2
2023-10-08T16:20:02.876Z,6.7
2023-10-08T16:22:03.959Z,7.8
2023-10-08T16:24:08.269Z,4.9
2023-10-08T16:26:09.330Z,13.2
2023-10-08T16:28:10.413Z,8.2
2023-10-08T16:30:11.484Z,3.3
2023-10-08T16:32:12.610Z,7.7
2023-10-08T16:34:13.707Z,4.4
2023-10-08T16:36:14.833Z,9.6
2023-10-08T16:38:19.033Z,5.5
2023-10-08T16:40:20.136Z,11.7
2023-10-08T16:43:23.317Z,6.5
2023-10-08T16:49:26.608Z,3.3
2023-10-08T16:53:31.969Z,3.3
2023-10-08T16:57:34.155Z,4.4
2023-10-08T16:59:35.230Z,5.4
2023-10-08T17:01:36.382Z,2.5
2023-10-08T17:03:37.525Z,3.3
2023-10-08T17:05:41.643Z,3.8
2023-10-08T17:07:42.749Z,3.4
2023-10-08T17:09:43.827Z,7.1
2023-10-08T17:11:44.922Z,4.2
2023-10-08T17:13:45.991Z,1.5
2023-10-08T17:15:47.157Z,5.1
2023-10-08T17:17:48.250Z,9
2023-10-08T17:19:52.421Z,8.4
2023-10-08T17:21:53.482Z,5.7
2023-10-08T17:23:54.592Z,12.1
2023-10-08T17:25:55.667Z,14.5
2023-10-08T17:29:57.917Z,7
2023-10-08T17:31:58.933Z,4.8
2023-10-08T17:34:03.300Z,9
2023-10-08T17:36:04.350Z,7.1
2023-10-08T17:38:05.366Z,11.7
2023-10-08T17:40:33.349Z,14.1
2023-10-08T17:42:34.452Z,6.9
2023-10-08T17:44:35.521Z,11.3
2023-10-08T17:46:39.879Z,13
2023-10-08T17:48:41.084Z,5.6
2023-10-08T17:52:43.087Z,11.8
2023-10-08T17:54:44.207Z,12.4
2023-10-08T17:56:45.297Z,12.7
2023-10-08T17:58:46.396Z,3.4
2023-10-08T18:00:50.651Z,8.1
2023-10-08T18:06:53.907Z,5.9
2023-10-08T18:29:14.070Z,7.8
2023-10-08T18:33:16.076Z,14.7
2023-10-08T18:34:18.130Z,12.5
2023-10-08T18:36:19.260Z,7.8
2023-10-08T18:38:20.311Z,10.1
2023-10-08T18:40:21.559Z,8.7
2023-10-08T18:42:25.706Z,8.7
2023-10-08T18:44:26.760Z,11
2023-10-08T18:46:27.896Z,5.9
2023-10-08T18:50:30.052Z,7.1
2023-10-08T18:54:32.249Z,12.2
2023-10-08T18:56:36.522Z,8.7
2023-10-08T18:58:37.603Z,7.6
2023-10-08T19:10:47.394Z,8.3
2023-10-08T19:12:48.479Z,8.7
2023-10-08T19:14:49.571Z,4.5
2023-10-08T19:16:50.668Z,4.7
2023-10-08T19:18:51.778Z,9.9
2023-10-08T19:24:58.222Z,11.9
2023-10-08T19:30:02.616Z,11.2
2023-10-08T19:32:03.713Z,6.7
2023-10-08T19:34:04.760Z,12.8
2023-10-08T19:36:05.872Z,18.6
2023-10-08T19:38:10.086Z,12.2
2023-10-08T19:42:12.290Z,7.3
2023-10-08T19:44:13.386Z,6.8
2023-10-08T19:48:15.710Z,4.1
2023-10-08T19:50:17.049Z,6.1
2023-10-08T19:52:21.107Z,10.6
2023-10-08T19:54:22.259Z,5.2
2023-10-08T19:58:24.406Z,16.5
2023-10-08T20:00:25.612Z,8
2023-10-08T20:06:32.015Z,12.4
2023-10-08T20:08:33.121Z,9.2
2023-10-08T20:10:34.192Z,4.7
2023-10-08T20:12:35.301Z,9.2
2023-10-08T20:14:36.402Z,6.2
2023-10-08T20:20:42.904Z,6.2
2023-10-08T20:22:44.013Z,8.3
2023-10-08T20:25:47.258Z,6.4
2023-10-08T20:27:48.360Z,8.5
2023-10-08T20:31:50.653Z,15.7
2023-10-08T20:33:54.907Z,10
2023-10-08T20:35:55.999Z,12.9
2023-10-08T20:37:57.074Z,15.5
2023-10-08T20:39:58.196Z,5.5
2023-10-08T20:41:59.268Z,6.7
2023-10-08T20:44:00.518Z,8.2
2023-10-08T20:46:01.483Z,11
2023-10-08T20:48:05.814Z,15.3
2023-10-08T20:50:17.205Z,10.3
2023-10-08T20:52:07.930Z,7.9
2023-10-08T20:54:09.053Z,9.6
2023-10-08T21:00:12.354Z,14.6
2023-10-08T21:16:27.670Z,10.8
2023-10-08T21:18:28.900Z,11.5
2023-10-08T21:22:57.927Z,10.1
2023-10-08T21:24:59.083Z,9.6
2023-10-08T21:27:00.326Z,9.6
2023-10-08T21:33:06.969Z,12.1
2023-10-08T21:37:09.291Z,14
2023-10-08T21:41:11.740Z,11.2
2023-10-08T21:43:16.207Z,14.7
2023-10-08T21:45:17.391Z,28
2023-10-08T21:47:18.468Z,17.1
2023-10-08T21:51:20.954Z,23.8
2023-10-08T21:53:22.104Z,24.2
2023-10-08T21:55:23.419Z,24.6
2023-10-08T21:57:27.800Z,25
2023-10-08T21:59:29.005Z,21.8
2023-10-08T22:01:30.250Z,37.7
2023-10-08T22:03:31.559Z,20.2
2023-10-08T22:05:33.039Z,19.7
2023-10-08T22:07:33.850Z,19.7
2023-10-08T22:09:37.551Z,21.3
2023-10-08T22:11:39.326Z,25.3
2023-10-08T22:13:40.550Z,24.4
2023-10-08T22:15:41.756Z,24.5
2023-10-08T22:16:44.121Z,34.7
2023-10-08T22:18:45.248Z,28.3
2023-10-08T22:20:46.432Z,25.2
2023-10-08T22:22:47.651Z,24.1
2023-10-08T22:24:52.151Z,40.8
2023-10-08T22:26:53.495Z,32.6
2023-10-08T22:28:54.568Z,26
2023-10-08T22:39:03.838Z,33.2
2023-10-08T22:47:08.442Z,41.4
2023-10-08T22:53:15.130Z,36.5
2023-10-08T22:55:16.341Z,43.3
2023-10-08T23:03:21.404Z,42.3
2023-10-08T23:09:28.250Z,43.4
2023-10-08T23:12:31.615Z,42.6
2023-10-08T23:14:32.829Z,49.7
2023-10-08T23:16:34.011Z,41.5
2023-10-08T23:18:35.342Z,48.8
2023-10-08T23:20:39.691Z,39.6
2023-10-08T23:22:40.812Z,53.4
2023-10-08T23:26:43.033Z,53.2
2023-10-08T23:28:44.144Z,60.6
2023-10-08T23:30:45.327Z,57
2023-10-08T23:32:46.515Z,71.6
2023-10-08T23:34:50.956Z,65.7
2023-10-08T23:36:52.159Z,64.3
2023-10-08T23:38:54.288Z,57.2
2023-10-08T23:49:02.471Z,71.8
2023-10-08T23:51:03.602Z,77
2023-10-08T23:53:04.712Z,87.7
